This is the latest recevied weather packets stored in our database for station/object DG2YCM-10. If no packets are shown the sender has not sent any weather packets the latest 10 day(s).
| Time | Temp. | Humidity | Pressure | Rain* | Wind** | Luminosity | Snow |
|---|---|---|---|---|---|---|---|
| 1777358504 | 14.44° C | 45% | 1011 hPa | - | - | - | - |
| 1777354964 | 12.22° C | 51% | 1011.1 hPa | - | - | - | - |
| 1777351424 | 11.67° C | 53% | 1010.6 hPa | - | - | - | - |
| 1777347884 | 11.67° C | 52% | 1010.8 hPa | - | - | - | - |
| 1777344344 | 12.22° C | 51% | 1011 hPa | - | - | - | - |
| 1777340804 | 12.78° C | 51% | 1011.4 hPa | - | - | - | - |
| 1777337264 | 12.78° C | 56% | 1011.8 hPa | - | - | - | - |
| 1777333724 | 12.78° C | 58% | 1012 hPa | - | - | - | - |
| 1777330184 | 12.78° C | 57% | 1012.1 hPa | - | - | - | - |
| 1777326643 | 14.44° C | 52% | 1012.1 hPa | - | - | - | - |
| 1777323103 | 16.11° C | 38% | 1012.3 hPa | - | - | - | - |
| 1777319563 | 16.67° C | 36% | 1012.5 hPa | - | - | - | - |
| 1777316023 | 18.33° C | 33% | 1012.5 hPa | - | - | - | - |
| 1777312483 | 19.44° C | 30% | 1012.4 hPa | - | - | - | - |
| 1777308942 | 21.11° C | 27% | 1012.6 hPa | - | - | - | - |
| 1777305402 | 21.67° C | 28% | 1012.9 hPa | - | - | - | - |
| 1777301862 | 23.33° C | 26% | 1013.4 hPa | - | - | - | - |
| 1777298322 | 22.78° C | 23% | 1014 hPa | - | - | - | - |
| 1777294782 | 22.22° C | 25% | 1014.5 hPa | - | - | - | - |
| 1777291279 | 23.89° C | 22% | 1014.9 hPa | - | - | - | - |
| 1777291242 | 23.89° C | 22% | 1014.9 hPa | - | - | - | - |
| 1777287701 | 21.67° C | 24% | 1015.5 hPa | - | - | - | - |
* Rain since midnight (hover to see other rain measurements)
** Current wind speed in m/s (hover to see current wind gust speed)